Time;durP1;ratioP1;P1;durP2;ratioP2;P2;SDS_P1;SDS_P2;PMS_P1;PMS_P2;Temp;Humidity;BMP_temperature;BMP_pressure;BME280_temperature;BME280_humidity;BME280_pressure;Samples;Min_cycle;Max_cycle;Signal;HPM_P1;HPM_P2
2023/01/13 00:02:13;;;;;;;28.15;6.13;;;;;;;;;;5061337;28;20504;-76
2023/01/13 00:04:39;;;;;;;29.58;5.68;;;;;;;;;;5070745;28;20917;-76
2023/01/13 00:07:05;;;;;;;26.90;5.38;;;;;;;;;;5084023;28;20447;-76
2023/01/13 00:09:31;;;;;;;27.52;5.97;;;;;;;;;;5077156;28;20408;-76
2023/01/13 00:11:57;;;;;;;28.33;5.93;;;;;;;;;;5055813;28;20416;-76
2023/01/13 00:14:25;;;;;;;38.35;6.85;;;;;;;;;;5085873;28;20444;-76
2023/01/13 00:16:54;;;;;;;26.75;6.10;;;;;;;;;;5093433;28;20853;-76
2023/01/13 00:19:20;;;;;;;35.65;7.13;;;;;;;;;;5087409;28;20465;-76
2023/01/13 00:21:46;;;;;;;27.27;6.53;;;;;;;;;;5074675;28;20413;-76
2023/01/13 00:24:12;;;;;;;38.47;6.90;;;;;;;;;;5069604;28;21085;-76
2023/01/13 00:26:38;;;;;;;34.95;6.47;;;;;;;;;;5063154;28;20753;-76
2023/01/13 00:29:04;;;;;;;35.60;6.63;;;;;;;;;;5072700;28;20444;-76
2023/01/13 00:31:30;;;;;;;29.83;6.67;;;;;;;;;;5095036;28;20470;-76
2023/01/13 00:33:57;;;;;;;35.13;6.60;;;;;;;;;;5072129;28;20473;-76
2023/01/13 00:36:23;;;;;;;33.95;7.18;;;;;;;;;;5082667;28;20797;-76
2023/01/13 00:38:49;;;;;;;35.33;7.32;;;;;;;;;;5086245;28;20419;-76
2023/01/13 00:41:16;;;;;;;37.45;7.72;;;;;;;;;;5078253;28;20787;-76
2023/01/13 00:43:42;;;;;;;31.10;6.80;;;;;;;;;;5065127;28;20481;-76
2023/01/13 00:46:09;;;;;;;37.60;7.20;;;;;;;;;;5091434;28;20417;-76
2023/01/13 00:48:36;;;;;;;37.35;7.20;;;;;;;;;;5085646;28;20467;-76
2023/01/13 00:51:13;;;;;;;36.67;7.00;;;;;;;;;;5076922;28;20460;-76
2023/01/13 00:53:42;;;;;;;33.63;6.28;;;8.50;99.90;;;;;;5091706;28;21056;-76
2023/01/13 00:56:10;;;;;;;34.40;7.13;;;;;;;;;;5071112;28;20414;-76
2023/01/13 00:58:36;;;;;;;30.95;6.75;;;;;;;;;;5052332;28;20806;-77
2023/01/13 01:01:05;;;;;;;35.72;7.18;;;8.10;99.90;;;;;;5073268;28;20937;-77
2023/01/13 01:03:31;;;;;;;36.28;6.95;;;;;;;;;;5073190;28;20422;-76
2023/01/13 01:06:02;;;;;;;32.78;6.93;;;;;;;;;;5073168;28;21125;-76
2023/01/13 01:08:28;;;;;;;31.75;6.90;;;;;;;;;;5070987;28;20421;-76
2023/01/13 01:11:04;;;;;;;40.15;7.57;;;;;;;;;;5082895;28;20534;-76
2023/01/13 01:13:30;;;;;;;36.13;7.63;;;;;;;;;;5089067;28;20924;-76
2023/01/13 01:15:56;;;;;;;37.78;7.10;;;;;;;;;;5093265;28;20404;-76
2023/01/13 01:18:23;;;;;;;36.10;7.63;;;;;;;;;;5081932;28;20446;-76
2023/01/13 01:20:49;;;;;;;34.60;7.45;;;;;;;;;;5059767;28;20805;-76
2023/01/13 01:23:15;;;;;;;35.27;7.47;;;;;;;;;;5094226;28;20500;-76
2023/01/13 01:25:41;;;;;;;35.35;6.75;;;;;;;;;;5075088;28;20413;-76
2023/01/13 01:28:07;;;;;;;30.85;7.07;;;;;;;;;;5076677;28;20432;-76
2023/01/13 01:30:33;;;;;;;30.23;7.07;;;;;;;;;;5060397;28;20402;-76
2023/01/13 01:33:02;;;;;;;32.50;7.32;;;;;;;;;;5080099;28;20440;-76
2023/01/13 01:35:28;;;;;;;36.95;7.22;;;;;;;;;;5067987;28;20431;-76
2023/01/13 01:37:54;;;;;;;29.88;6.93;;;;;;;;;;5079700;28;20914;-76
2023/01/13 01:40:20;;;;;;;37.97;6.88;;;;;;;;;;5093862;28;20904;-76
2023/01/13 01:45:31;;;;;;;31.63;6.33;;;;;;;;;;5073083;28;20428;-76
2023/01/13 01:47:59;;;;;;;30.08;6.15;;;;;;;;;;5076553;28;20420;-76
2023/01/13 01:50:27;;;;;;;30.67;6.95;;;;;;;;;;5062608;28;20457;-76
2023/01/13 01:53:16;;;;;;;29.85;6.20;;;8.10;99.90;;;;;;5089618;28;20428;-76
2023/01/13 01:55:42;;;;;;;31.00;5.90;;;;;;;;;;5090485;28;20469;-76
2023/01/13 01:58:11;;;;;;;30.63;6.30;;;;;;;;;;5074807;28;20544;-76
2023/01/13 02:00:37;;;;;;;34.35;6.50;;;;;;;;;;5074295;28;20413;-76
2023/01/13 02:03:04;;;;;;;38.15;6.85;;;;;;;;;;5079041;28;20806;-76
2023/01/13 02:05:30;;;;;;;31.60;7.22;;;;;;;;;;5095742;28;20469;-76
2023/01/13 02:07:57;;;;;;;28.23;6.80;;;8.10;99.90;;;;;;5090937;28;20913;-76
2023/01/13 02:10:26;;;;;;;33.53;6.53;;;7.80;99.90;;;;;;5077363;28;20413;-76
2023/01/13 02:12:56;;;;;;;37.83;6.57;;;;;;;;;;5058524;28;20427;-76
2023/01/13 02:15:25;;;;;;;32.73;7.10;;;;;;;;;;5076027;28;20435;-76
2023/01/13 02:18:17;;;;;;;36.92;7.03;;;;;;;;;;5074488;28;20421;-76
2023/01/13 02:20:50;;;;;;;29.10;6.75;;;;;;;;;;5066934;28;20483;-76
2023/01/13 02:27:00;;;;;;;31.73;6.93;;;8.00;99.90;;;;;;5079494;28;20410;-76
2023/01/13 02:32:27;;;;;;;31.83;6.63;;;8.30;99.90;;;;;;5074412;28;20421;-76
2023/01/13 02:35:05;;;;;;;35.65;6.97;;;8.40;99.90;;;;;;5093832;28;20421;-76
2023/01/13 02:37:36;;;;;;;34.78;6.78;;;8.40;99.90;;;;;;5073671;28;20444;-76
2023/01/13 02:40:02;;;;;;;32.58;7.05;;;;;;;;;;5080814;28;21447;-76
2023/01/13 02:45:29;;;;;;;32.55;6.63;;;;;;;;;;5089978;28;20427;-76
2023/01/13 02:47:57;;;;;;;35.55;7.55;;;8.40;99.90;;;;;;5083078;28;20448;-76
2023/01/13 02:50:26;;;;;;;35.63;6.30;;;;;;;;;;5090556;28;21193;-76
2023/01/13 02:52:57;;;;;;;33.97;6.45;;;8.50;99.90;;;;;;5071227;28;20462;-76
2023/01/13 02:55:32;;;;;;;33.75;7.55;;;;;;;;;;5083094;28;20500;-76
2023/01/13 02:58:00;;;;;;;32.40;6.70;;;;;;;;;;5081435;28;20430;-76
2023/01/13 03:00:26;;;;;;;35.60;6.95;;;;;;;;;;5088653;28;20756;-76
2023/01/13 03:02:52;;;;;;;34.33;6.78;;;;;;;;;;5046335;28;20425;-76
2023/01/13 03:05:18;;;;;;;28.17;5.85;;;;;;;;;;5067874;28;20426;-76
2023/01/13 03:08:14;;;;;;;27.77;6.45;;;8.30;99.90;;;;;;5079999;28;20440;-76
2023/01/13 03:10:52;;;;;;;34.90;6.13;;;;;;;;;;5093904;28;20431;-76
2023/01/13 03:13:36;;;;;;;36.17;6.70;;;;;;;;;;5090379;28;20419;-75
2023/01/13 03:16:12;;;;;;;31.98;6.05;;;;;;;;;;5088768;28;20571;-76
2023/01/13 03:18:59;;;;;;;31.95;6.35;;;;;;;;;;5074543;28;20425;-76
2023/01/13 03:21:30;;;;;;;33.90;6.28;;;8.20;99.90;;;;;;5055772;28;20407;-75
2023/01/13 03:24:29;;;;;;;26.15;6.45;;;8.20;99.90;;;;;;5056093;28;20780;-75
2023/01/13 03:27:01;;;;;;;29.08;5.75;;;;;;;;;;5072035;28;20496;-76
2023/01/13 03:29:30;;;;;;;32.65;6.20;;;;;;;;;;5096167;28;20400;-75
2023/01/13 03:32:00;;;;;;;27.42;5.60;;;;;;;;;;5081412;28;20414;-76
2023/01/13 03:34:30;;;;;;;30.20;6.53;;;;;;;;;;5075679;28;20904;-76
2023/01/13 03:36:57;;;;;;;28.90;5.82;;;;;;;;;;5075076;28;20422;-76
2023/01/13 03:39:26;;;;;;;27.63;5.60;;;;;;;;;;5057460;28;20418;-76
2023/01/13 03:41:58;;;;;;;26.23;5.88;;;;;;;;;;5079172;28;20416;-76
2023/01/13 03:44:45;;;;;;;28.63;6.32;;;;;;;;;;5075699;28;20498;-76
2023/01/13 03:47:23;;;;;;;29.45;6.28;;;;;;;;;;5052505;28;20414;-76
2023/01/13 03:50:01;;;;;;;30.67;5.63;;;8.30;99.90;;;;;;5075769;28;20433;-76
2023/01/13 03:52:32;;;;;;;33.28;6.22;;;8.40;99.90;;;;;;5085887;28;20464;-76
2023/01/13 03:55:22;;;;;;;30.33;5.90;;;8.60;99.90;;;;;;5089162;28;20507;-76
2023/01/13 03:57:57;;;;;;;32.10;6.63;;;;;;;;;;5091347;28;20427;-76
2023/01/13 04:00:28;;;;;;;31.27;5.63;;;8.20;99.90;;;;;;5070813;28;20819;-76
2023/01/13 04:02:57;;;;;;;30.55;6.05;;;;;;;;;;5056066;28;20421;-76
2023/01/13 04:05:24;;;;;;;30.33;6.15;;;8.20;99.90;;;;;;5075421;28;20460;-76
2023/01/13 04:08:06;;;;;;;34.50;7.75;;;;;;;;;;5050439;28;20409;-76
2023/01/13 04:10:35;;;;;;;28.70;6.03;;;;;;;;;;5093685;28;20469;-77
2023/01/13 04:13:09;;;;;;;29.67;6.40;;;7.80;99.90;;;;;;5082123;28;20448;-76
2023/01/13 04:15:39;;;;;;;33.10;6.95;;;;;;;;;;5092885;28;20453;-76
2023/01/13 04:18:23;;;;;;;29.47;6.17;;;;;;;;;;5057863;28;20417;-76
2023/01/13 04:20:50;;;;;;;31.57;5.83;;;;;;;;;;5075915;28;20464;-76
2023/01/13 04:23:16;;;;;;;32.83;6.47;;;;;;;;;;5072751;28;20418;-76
2023/01/13 04:25:43;;;;;;;30.83;6.35;;;;;;;;;;5090203;28;20893;-76
2023/01/13 04:28:09;;;;;;;31.02;6.18;;;;;;;;;;5074240;28;20407;-76
2023/01/13 04:30:36;;;;;;;32.33;6.15;;;;;;;;;;5087019;28;20496;-76
2023/01/13 04:33:03;;;;;;;28.90;5.88;;;;;;;;;;5092150;28;20900;-76
2023/01/13 04:35:29;;;;;;;29.15;6.82;;;;;;;;;;5092285;28;20552;-76
2023/01/13 04:37:55;;;;;;;29.05;5.82;;;;;;;;;;5072357;28;20414;-76
2023/01/13 04:40:21;;;;;;;35.13;5.82;;;;;;;;;;5082030;28;20458;-76
2023/01/13 04:42:47;;;;;;;32.40;6.50;;;;;;;;;;5084727;28;20437;-76
2023/01/13 04:45:14;;;;;;;39.08;6.28;;;8.40;99.90;;;;;;5086382;28;20982;-76
2023/01/13 04:47:42;;;;;;;27.60;5.57;;;;;;;;;;5075716;28;20426;-76
2023/01/13 04:50:10;;;;;;;33.20;6.60;;;;;;;;;;5070117;28;20438;-76
2023/01/13 04:52:36;;;;;;;27.05;5.53;;;;;;;;;;5079432;28;20420;-76
2023/01/13 04:55:02;;;;;;;33.90;6.40;;;;;;;;;;5071532;28;20418;-76
2023/01/13 04:57:28;;;;;;;30.88;6.80;;;;;;;;;;5086423;28;20416;-76
2023/01/13 04:59:54;;;;;;;31.05;6.15;;;;;;;;;;5072639;28;20489;-76
2023/01/13 05:02:20;;;;;;;28.17;6.35;;;;;;;;;;5083882;28;20485;-76
2023/01/13 05:04:47;;;;;;;28.42;5.60;;;;;;;;;;5077347;28;20416;-76
2023/01/13 05:07:14;;;;;;;28.77;6.30;;;8.60;99.90;;;;;;5084726;28;20418;-76
2023/01/13 05:09:41;;;;;;;24.47;5.67;;;;;;;;;;5062068;28;20409;-76
2023/01/13 05:17:40;;;;;;;28.93;6.17;;;;;;;;;;5094105;28;20404;-76
2023/01/13 05:20:07;;;;;;;25.17;5.10;;;;;;;;;;5068460;28;20492;-76
2023/01/13 05:25:20;;;;;;;26.27;6.13;;;;;;;;;;5066904;28;20420;-76
2023/01/13 05:27:46;;;;;;;26.27;5.30;;;;;;;;;;5075147;28;20415;-76
2023/01/13 05:30:12;;;;;;;28.10;5.43;;;;;;;;;;5089889;28;20499;-76
2023/01/13 05:32:39;;;;;;;26.25;5.38;;;;;;;;;;5089662;28;20565;-76
2023/01/13 05:35:05;;;;;;;26.45;5.32;;;;;;;;;;5073534;28;20405;-70
2023/01/13 05:37:31;;;;;;;26.70;5.18;;;;;;;;;;5073642;28;20405;-76
2023/01/13 05:45:30;;;;;;;24.92;5.05;;;8.70;99.90;;;;;;5067172;28;20479;-76
2023/01/13 05:47:56;;;;;;;28.15;5.68;;;;;;;;;;5056436;28;20509;-76
2023/01/13 05:50:22;;;;;;;27.75;5.15;;;;;;;;;;5090948;28;20412;-76
2023/01/13 05:52:49;;;;;;;26.02;5.55;;;;;;;;;;5090395;28;20498;-76
2023/01/13 05:55:15;;;;;;;23.13;5.57;;;;;;;;;;5072450;28;20485;-76
2023/01/13 05:57:41;;;;;;;24.90;6.43;;;;;;;;;;5077996;28;22120;-76
2023/01/13 06:00:08;;;;;;;32.65;5.68;;;;;;;;;;5064734;28;20441;-76
2023/01/13 06:02:34;;;;;;;28.17;5.85;;;;;;;;;;5093775;28;20436;-76
2023/01/13 06:05:00;;;;;;;28.80;5.35;;;;;;;;;;5090786;28;20424;-76
2023/01/13 06:07:26;;;;;;;27.95;5.25;;;;;;;;;;5072836;28;20830;-76
2023/01/13 06:09:52;;;;;;;23.02;4.53;;;;;;;;;;5070967;28;20414;-76
2023/01/13 06:12:18;;;;;;;23.83;4.97;;;;;;;;;;5073219;28;20481;-76
2023/01/13 06:14:44;;;;;;;25.73;4.72;;;;;;;;;;5072462;28;20478;-76
2023/01/13 06:17:12;;;;;;;30.60;4.82;;;8.70;99.90;;;;;;5072721;28;20422;-76
2023/01/13 06:19:38;;;;;;;21.67;5.05;;;;;;;;;;5092007;28;20420;-76
2023/01/13 06:22:18;;;;;;;20.23;4.60;;;;;;;;;;5063298;28;20432;-76
2023/01/13 06:24:45;;;;;;;20.55;4.47;;;;;;;;;;5070758;28;20558;-76
2023/01/13 06:27:11;;;;;;;23.02;4.93;;;;;;;;;;5071903;28;20405;-76
2023/01/13 06:29:37;;;;;;;26.70;5.57;;;;;;;;;;5092202;28;20413;-76
2023/01/13 06:32:10;;;;;;;24.95;4.93;;;8.50;99.90;;;;;;5080057;28;20453;-76
2023/01/13 06:34:37;;;;;;;20.67;4.77;;;8.40;99.90;;;;;;5073090;28;20410;-76
2023/01/13 06:37:04;;;;;;;20.70;4.25;;;;;;;;;;5073839;28;20512;-76
2023/01/13 06:39:31;;;;;;;24.30;5.13;;;8.40;99.90;;;;;;5070269;28;20433;-76
2023/01/13 06:44:44;;;;;;;20.83;4.10;;;8.30;99.90;;;;;;5080307;28;21087;-76
2023/01/13 06:47:10;;;;;;;26.77;4.65;;;;;;;;;;5057234;28;20418;-77
2023/01/13 06:49:36;;;;;;;25.02;4.43;;;;;;;;;;5076869;28;20397;-75
2023/01/13 06:52:02;;;;;;;23.10;4.87;;;;;;;;;;5086167;28;20446;-76
2023/01/13 06:54:33;;;;;;;25.98;4.55;;;;;;;;;;5081779;28;20421;-76
2023/01/13 06:56:59;;;;;;;22.02;4.03;;;;;;;;;;5076835;28;20723;-76
2023/01/13 06:59:25;;;;;;;24.48;4.50;;;;;;;;;;5060153;28;20434;-76
2023/01/13 07:01:51;;;;;;;24.95;5.43;;;;;;;;;;5062312;28;20417;-75
2023/01/13 07:04:18;;;;;;;20.58;5.20;;;;;;;;;;5076778;28;20646;-76
2023/01/13 07:06:44;;;;;;;24.65;4.82;;;;;;;;;;5079781;28;20426;-76
2023/01/13 07:09:10;;;;;;;23.67;4.43;;;;;;;;;;5075657;28;20940;-76
2023/01/13 07:11:36;;;;;;;23.75;4.68;;;;;;;;;;5075280;28;20552;-78
2023/01/13 07:16:47;;;;;;;30.17;5.32;;;;;;;;;;5077992;28;20406;-78
2023/01/13 07:19:14;;;;;;;28.57;5.50;;;;;;;;;;5074340;28;20422;-79
2023/01/13 07:21:41;;;;;;;25.48;4.95;;;;;;;;;;5076479;28;20500;-79
2023/01/13 07:24:07;;;;;;;27.85;4.95;;;;;;;;;;5053580;28;20509;-79
2023/01/13 07:26:33;;;;;;;21.58;5.07;;;;;;;;;;5042880;28;20405;-78
2023/01/13 07:29:05;;;;;;;23.85;5.10;;;;;;;;;;5077097;28;20416;-78
2023/01/13 07:31:31;;;;;;;28.85;5.35;;;;;;;;;;5081713;28;20482;-78
2023/01/13 07:33:57;;;;;;;25.10;5.18;;;;;;;;;;5093489;28;20419;-76
2023/01/13 07:36:23;;;;;;;24.17;4.97;;;;;;;;;;5096590;28;20930;-78
2023/01/13 07:38:49;;;;;;;22.23;4.63;;;;;;;;;;5079902;28;20448;-77
2023/01/13 07:44:03;;;;;;;25.10;5.03;;;;;;;;;;5079517;28;20511;-77
2023/01/13 07:46:30;;;;;;;26.87;5.17;;;;;;;;;;5058358;28;20917;-77
2023/01/13 07:48:56;;;;;;;29.25;5.07;;;;;;;;;;5073537;28;20418;-76
2023/01/13 07:51:22;;;;;;;30.43;6.10;;;;;;;;;;5080867;28;20464;-77
2023/01/13 07:53:48;;;;;;;29.40;5.32;;;;;;;;;;5077037;28;20463;-78
2023/01/13 07:56:15;;;;;;;29.08;5.28;;;;;;;;;;5083751;28;20509;-78
2023/01/13 07:58:41;;;;;;;23.58;5.47;;;;;;;;;;5062597;28;20776;-78
2023/01/13 08:01:12;;;;;;;25.75;5.53;;;;;;;;;;5054023;28;20909;-77
2023/01/13 08:03:38;;;;;;;31.40;5.90;;;;;;;;;;5053402;28;20424;-78
2023/01/13 08:06:05;;;;;;;24.85;4.72;;;;;;;;;;5068133;28;20499;-77
2023/01/13 08:08:31;;;;;;;27.48;5.60;;;;;;;;;;5080933;28;20924;-77
2023/01/13 08:11:02;;;;;;;23.35;5.13;;;;;;;;;;5036238;28;20426;-78
2023/01/13 08:13:28;;;;;;;27.48;5.47;;;;;;;;;;5082634;28;20929;-78
2023/01/13 08:16:16;;;;;;;21.80;4.90;;;;;;;;;;5068962;28;20743;-79
2023/01/13 08:18:42;;;;;;;22.90;4.93;;;;;;;;;;5074539;28;20429;-79
2023/01/13 08:21:12;;;;;;;25.85;5.00;;;;;;;;;;5056393;28;20424;-78
2023/01/13 08:23:39;;;;;;;22.13;4.80;;;;;;;;;;5065336;28;20424;-78
2023/01/13 08:26:06;;;;;;;26.63;4.78;;;;;;;;;;5080022;28;20418;-78
2023/01/13 08:28:33;;;;;;;22.90;5.15;;;;;;;;;;5069367;28;20765;-78
2023/01/13 08:31:01;;;;;;;25.88;5.60;;;8.00;99.90;;;;;;5074603;28;20414;-79
2023/01/13 08:33:27;;;;;;;30.48;5.85;;;;;;;;;;5073744;28;20414;-79
2023/01/13 08:35:54;;;;;;;26.58;5.68;;;;;;;;;;5074253;28;20505;-79
2023/01/13 08:38:20;;;;;;;26.60;5.30;;;;;;;;;;5079054;28;20509;-79
2023/01/13 08:40:46;;;;;;;30.13;5.63;;;;;;;;;;5094502;28;20838;-78
2023/01/13 08:43:12;;;;;;;26.35;5.55;;;;;;;;;;5060931;28;20421;-79
2023/01/13 08:45:38;;;;;;;26.80;5.70;;;;;;;;;;5072637;28;20428;-79
2023/01/13 08:48:05;;;;;;;32.63;5.18;;;;;;;;;;5072337;28;20445;-79
2023/01/13 08:50:31;;;;;;;27.75;5.70;;;;;;;;;;5073828;28;20409;-78
2023/01/13 08:52:57;;;;;;;24.55;5.60;;;;;;;;;;5056376;28;20434;-79
2023/01/13 08:55:23;;;;;;;29.43;5.43;;;;;;;;;;5058358;28;20416;-79
2023/01/13 08:57:49;;;;;;;29.35;6.78;;;;;;;;;;5060002;28;20424;-78
2023/01/13 09:00:18;;;;;;;24.63;5.15;;;;;;;;;;5058304;28;20429;-77
2023/01/13 09:02:44;;;;;;;26.48;5.68;;;;;;;;;;5071784;28;20757;-78
2023/01/13 09:05:10;;;;;;;31.58;6.47;;;;;;;;;;5079163;28;20469;-78
2023/01/13 09:07:37;;;;;;;27.38;5.70;;;;;;;;;;5075615;28;20409;-79
2023/01/13 09:10:05;;;;;;;37.88;6.55;;;;;;;;;;5071021;28;20452;-78
2023/01/13 09:15:18;;;;;;;21.58;4.22;;;;;;;;;;5068478;28;20428;-78
2023/01/13 09:17:46;;;;;;;23.65;4.68;;;;;;;;;;5069681;28;21117;-78
2023/01/13 09:20:13;;;;;;;19.58;4.57;;;;;;;;;;5073674;28;20445;-78
2023/01/13 09:22:40;;;;;;;24.13;4.60;;;;;;;;;;5073845;28;20942;-78
2023/01/13 09:25:06;;;;;;;30.88;5.28;;;;;;;;;;5073382;28;20428;-78
2023/01/13 09:27:32;;;;;;;26.55;5.30;;;;;;;;;;5057433;28;20441;-78
2023/01/13 09:29:58;;;;;;;32.15;5.10;;;;;;;;;;5049420;28;20423;-78
2023/01/13 09:32:24;;;;;;;26.10;5.32;;;;;;;;;;5061773;28;20417;-78
2023/01/13 09:35:00;;;;;;;30.02;5.30;;;;;;;;;;5071566;28;20413;-78
2023/01/13 09:37:30;;;;;;;28.63;5.03;;;;;;;;;;5057603;28;20413;-78
2023/01/13 09:39:56;;;;;;;26.70;5.37;;;;;;;;;;5071231;28;20429;-77
2023/01/13 09:46:42;;;;;;;27.05;5.13;;;7.60;99.90;;;;;;5092960;28;20435;-78
2023/01/13 09:49:02;;;;;;;30.73;5.63;;;;;;;;;;5069501;28;20456;-78
2023/01/13 09:51:48;;;;;;;27.25;5.15;;;;;;;;;;5060471;28;20448;-77
2023/01/13 09:54:31;;;;;;;26.75;5.78;;;;;;;;;;5082078;28;20412;-78
2023/01/13 09:56:57;;;;;;;25.85;5.63;;;;;;;;;;5062581;28;20755;-79
2023/01/13 09:59:26;;;;;;;26.13;5.18;;;;;;;;;;5078750;28;20420;-79
2023/01/13 10:01:59;;;;;;;32.70;5.80;;;;;;;;;;5069578;28;20754;-78
2023/01/13 10:04:26;;;;;;;31.13;4.80;;;;;;;;;;5072256;28;20983;-76
2023/01/13 10:06:55;;;;;;;23.85;4.90;;;;;;;;;;5068179;28;20417;-76
2023/01/13 10:09:33;;;;;;;25.08;4.93;;;;;;;;;;5056588;28;20422;-76
2023/01/13 10:14:49;;;;;;;23.95;4.63;;;;;;;;;;5061902;28;20467;-75
2023/01/13 10:17:31;;;;;;;25.83;4.75;;;7.30;99.90;;;;;;5077492;28;20412;-75
2023/01/13 10:20:18;;;;;;;25.00;4.13;;;;;;;;;;5065323;28;20417;-76
2023/01/13 10:22:51;;;;;;;25.60;5.13;;;;;;;;;;5073025;28;20789;-76
2023/01/13 10:25:39;;;;;;;24.53;5.07;;;7.40;99.90;;;;;;5068301;28;20890;-76
2023/01/13 10:28:10;;;;;;;23.30;4.75;;;;;;;;;;5080010;28;20417;-75
2023/01/13 10:30:44;;;;;;;28.92;5.78;;;7.20;99.90;;;;;;5060813;28;20501;-75
2023/01/13 10:33:21;;;;;;;23.50;5.05;;;7.60;99.90;;;;;;5075863;28;20445;-76
2023/01/13 10:35:50;;;;;;;27.85;5.18;;;;;;;;;;5070908;28;20424;-76
2023/01/13 10:38:17;;;;;;;29.80;4.88;;;;;;;;;;5074487;28;20433;-75
2023/01/13 10:41:02;;;;;;;28.55;4.97;;;7.60;99.90;;;;;;5066525;28;20418;-77
2023/01/13 10:43:29;;;;;;;24.35;4.47;;;;;;;;;;5059340;28;20478;-78
2023/01/13 10:46:10;;;;;;;25.85;4.70;;;;;;;;;;5075522;28;20477;-77
2023/01/13 10:48:41;;;;;;;27.50;4.93;;;;;;;;;;5087133;28;20408;-77
2023/01/13 10:51:17;;;;;;;26.05;5.35;;;;;;;;;;5088325;28;20502;-77
2023/01/13 10:53:52;;;;;;;19.58;4.35;;;;;;;;;;5076896;28;20421;-77
2023/01/13 10:56:20;;;;;;;26.35;5.20;;;;;;;;;;5076774;28;20426;-77
2023/01/13 10:58:46;;;;;;;19.42;4.50;;;;;;;;;;5073938;28;20420;-78
2023/01/13 11:01:24;;;;;;;21.85;4.25;;;8.10;99.90;;;;;;5087469;28;20417;-78
2023/01/13 11:03:50;;;;;;;20.48;4.68;;;;;;;;;;5079674;28;20515;-78
2023/01/13 11:06:25;;;;;;;19.35;4.35;;;8.00;99.90;;;;;;5056042;28;20535;-78
2023/01/13 11:08:54;;;;;;;22.38;5.03;;;;;;;;;;5083996;28;20416;-80
2023/01/13 11:11:38;;;;;;;22.50;4.40;;;;;;;;;;5077145;28;20425;-80
2023/01/13 11:16:57;;;;;;;21.48;4.15;;;7.90;99.90;;;;;;5087451;28;20455;-80
2023/01/13 11:19:27;;;;;;;18.30;4.38;;;;;;;;;;5073654;28;20431;-81
2023/01/13 11:21:53;;;;;;;20.05;4.28;;;;;;;;;;5072712;28;20441;-80
2023/01/13 11:24:46;;;;;;;20.52;4.43;;;7.80;99.90;;;;;;5065806;28;20479;-80
2023/01/13 11:27:20;;;;;;;16.33;4.03;;;;;;;;;;5076726;28;20418;-80
2023/01/13 11:30:08;;;;;;;18.53;3.67;;;;;;;;;;5059492;28;20425;-80
2023/01/13 11:32:40;;;;;;;16.27;3.70;;;8.10;99.90;;;;;;5068992;28;20843;-80
2023/01/13 11:35:26;;;;;;;16.65;3.80;;;;;;;;;;5054368;28;20426;-81
2023/01/13 11:37:55;;;;;;;15.85;3.33;;;;;;;;;;5067329;28;20465;-80
2023/01/13 11:40:31;;;;;;;22.13;4.03;;;7.90;99.90;;;;;;5071789;28;20422;-80
2023/01/13 11:43:03;;;;;;;18.10;3.83;;;;;;;;;;5075949;28;20804;-80
2023/01/13 11:45:43;;;;;;;14.40;3.90;;;;;;;;;;5058799;28;20422;-80
2023/01/13 11:48:19;;;;;;;17.00;3.30;;;;;;;;;;5073261;28;20417;-80
2023/01/13 11:51:13;;;;;;;19.65;3.60;;;8.40;99.90;;;;;;5061455;28;20404;-79
2023/01/13 11:53:58;;;;;;;16.27;3.78;;;;;;;;;;5057474;28;20420;-80
2023/01/13 11:56:56;;;;;;;18.83;4.30;;;;;;;;;;5074669;28;20445;-80
2023/01/13 11:59:44;;;;;;;22.20;3.83;;;8.40;99.90;;;;;;5056758;28;20420;-80
2023/01/13 12:02:28;;;;;;;19.45;3.83;;;8.50;99.90;;;;;;5075256;28;20457;-80
2023/01/13 12:05:07;;;;;;;18.13;3.28;;;;;;;;;;5074622;28;20430;-80
2023/01/13 12:07:33;;;;;;;21.13;3.93;;;;;;;;;;5067439;28;20421;-80
2023/01/13 12:10:08;;;;;;;17.05;3.50;;;;;;;;;;5060386;28;20413;-80
2023/01/13 12:12:53;;;;;;;16.58;3.40;;;;;;;;;;5067237;28;20431;-80
2023/01/13 12:15:38;;;;;;;15.00;3.53;;;;;;;;;;5087753;28;20454;-79
2023/01/13 12:18:51;;;;;;;12.23;3.43;;;8.60;99.90;;;;;;5070752;28;20501;-80
2023/01/13 12:21:24;;;;;;;19.02;3.25;;;9.00;99.90;;;;;;5063988;28;20483;-80
2023/01/13 12:24:13;;;;;;;18.20;3.63;;;;;;;;;;5059643;28;20430;-80
2023/01/13 12:26:42;;;;;;;15.13;3.37;;;;;;;;;;5053732;28;20416;-80
2023/01/13 12:29:13;;;;;;;14.95;3.30;;;;;;;;;;5071359;28;20429;-80
2023/01/13 12:31:39;;;;;;;15.63;3.35;;;;;;;;;;5065333;28;20462;-80
2023/01/13 12:34:09;;;;;;;14.80;3.00;;;;;;;;;;5064517;28;20414;-80
2023/01/13 12:36:53;;;;;;;13.55;3.15;;;;;;;;;;5062004;28;20418;-79
2023/01/13 12:39:32;;;;;;;15.60;3.80;;;;;;;;;;5051028;28;20884;-78
2023/01/13 12:45:05;;;;;;;13.57;3.35;;;;;;;;;;5075467;28;20455;-78
2023/01/13 12:47:49;;;;;;;16.97;3.63;;;;;;;;;;5078860;28;20503;-78
2023/01/13 12:50:21;;;;;;;14.20;2.80;;;;;;;;;;5081324;28;20425;-77
2023/01/13 12:52:48;;;;;;;15.13;3.00;;;;;;;;;;5073490;28;20451;-77
2023/01/13 12:55:18;;;;;;;13.27;3.35;;;9.00;99.90;;;;;;5053233;28;20424;-77
2023/01/13 12:57:55;;;;;;;11.85;3.20;;;;;;;;;;5066269;28;20434;-77
2023/01/13 13:00:21;;;;;;;13.77;3.30;;;;;;;;;;5058801;28;20789;-77
2023/01/13 13:03:12;;;;;;;14.13;3.30;;;9.00;99.90;;;;;;5065793;28;20447;-77
2023/01/13 13:05:38;;;;;;;19.42;3.60;;;;;;;;;;5058970;28;20460;-77
2023/01/13 13:08:14;;;;;;;16.15;3.40;;;8.30;99.90;;;;;;5074735;28;20464;-77
2023/01/13 13:10:44;;;;;;;15.85;3.33;;;;;;;;;;5072420;28;20917;-77
2023/01/13 13:13:21;;;;;;;12.98;2.92;;;;;;;;;;5076675;28;20415;-77
2023/01/13 13:16:10;;;;;;;13.53;3.13;;;9.00;99.90;;;;;;5055822;28;20414;-77
2023/01/13 13:18:36;;;;;;;14.52;3.65;;;;;;;;;;5053197;28;21547;-77
2023/01/13 13:21:09;;;;;;;12.90;3.03;;;;;;;;;;5037990;28;20471;-78
2023/01/13 13:23:46;;;;;;;14.10;3.10;;;;;;;;;;5058958;28;20907;-79
2023/01/13 13:26:23;;;;;;;16.30;3.47;;;;;;;;;;5072001;28;20425;-79
2023/01/13 13:29:04;;;;;;;13.50;2.90;;;;;;;;;;5067599;28;20407;-80
2023/01/13 13:31:36;;;;;;;14.65;2.83;;;;;;;;;;5060674;28;20453;-79
2023/01/13 13:34:11;;;;;;;14.45;2.53;;;;;;;;;;5062205;28;20463;-79
2023/01/13 13:36:45;;;;;;;13.73;2.78;;;;;;;;;;5071930;28;20933;-80
2023/01/13 13:48:29;;;;;;;16.10;3.10;;;;;;;;;;5028600;28;20413;-80
2023/01/13 13:51:01;;;;;;;12.20;2.95;;;;;;;;;;5072367;28;20408;-80
2023/01/13 13:53:35;;;;;;;16.83;3.53;;;;;;;;;;5083933;28;20398;-80
2023/01/13 13:56:01;;;;;;;14.23;3.30;;;;;;;;;;5063519;28;20737;-80
2023/01/13 13:58:29;;;;;;;13.50;3.13;;;;;;;;;;5066853;28;20422;-80
2023/01/13 14:00:56;;;;;;;14.40;3.17;;;9.20;99.90;;;;;;5073204;28;20485;-81
2023/01/13 14:03:25;;;;;;;11.98;2.90;;;;;;;;;;5053283;28;20415;-79
2023/01/13 14:06:02;;;;;;;12.50;3.17;;;;;;;;;;5037296;28;20406;-80
2023/01/13 14:08:29;;;;;;;13.95;2.90;;;;;;;;;;5065253;28;20445;-80
2023/01/13 14:10:55;;;;;;;18.05;3.40;;;;;;;;;;5073568;28;20428;-80
2023/01/13 14:13:29;;;;;;;12.80;3.03;;;9.20;99.90;;;;;;5059008;28;20422;-80
2023/01/13 14:15:57;;;;;;;10.60;2.75;;;;;;;;;;5087606;28;20419;-76
2023/01/13 14:18:23;;;;;;;13.20;3.50;;;;;;;;;;5080836;28;20439;-76
2023/01/13 14:20:54;;;;;;;13.18;2.47;;;;;;;;;;5065660;28;20466;-76
2023/01/13 14:23:23;;;;;;;14.85;3.13;;;;;;;;;;5067891;28;20909;-76
2023/01/13 14:25:50;;;;;;;14.20;2.78;;;;;;;;;;5070952;28;20431;-76
2023/01/13 14:28:31;;;;;;;13.48;2.95;;;;;;;;;;5066643;28;20445;-77
2023/01/13 14:30:57;;;;;;;11.20;2.80;;;;;;;;;;5060624;28;20416;-76
2023/01/13 14:33:32;;;;;;;13.07;2.72;;;;;;;;;;5073490;28;20421;-76
2023/01/13 14:36:18;;;;;;;12.95;3.13;;;9.30;99.90;;;;;;5073443;28;20450;-77
2023/01/13 14:38:45;;;;;;;11.60;2.78;;;;;;;;;;5096874;28;20481;-76
2023/01/13 14:41:22;;;;;;;14.37;3.50;;;;;;;;;;5082383;28;20475;-76
2023/01/13 14:43:49;;;;;;;12.48;2.75;;;;;;;;;;5071118;28;20436;-76
2023/01/13 14:46:22;;;;;;;13.83;3.10;;;;;;;;;;5056209;28;20440;-76
2023/01/13 14:48:50;;;;;;;13.68;3.35;;;;;;;;;;5055505;28;20453;-78
2023/01/13 14:51:25;;;;;;;11.88;2.88;;;9.20;99.90;;;;;;5071965;28;20421;-76
2023/01/13 14:53:51;;;;;;;13.95;2.83;;;;;;;;;;5054323;28;20418;-76
2023/01/13 14:56:39;;;;;;;12.63;2.58;;;9.10;99.90;;;;;;5076556;28;20492;-77
2023/01/13 14:59:34;;;;;;;11.63;3.00;;;9.00;99.90;;;;;;5078111;28;20433;-76
2023/01/13 15:02:01;;;;;;;14.70;3.25;;;;;;;;;;5065451;28;20478;-77
2023/01/13 15:04:32;;;;;;;14.50;2.83;;;;;;;;;;5050378;28;20418;-76
2023/01/13 15:06:58;;;;;;;21.17;7.82;;;;;;;;;;5059850;28;20423;-76
2023/01/13 15:09:26;;;;;;;11.35;3.15;;;;;;;;;;5050644;28;20414;-80
2023/01/13 15:11:53;;;;;;;16.00;3.50;;;;;;;;;;5078540;28;20414;-77
2023/01/13 15:14:23;;;;;;;11.88;3.13;;;;;;;;;;5071988;28;20460;-77
2023/01/13 15:16:50;;;;;;;16.50;3.08;;;;;;;;;;5078521;28;20420;-77
2023/01/13 15:19:16;;;;;;;12.55;2.83;;;;;;;;;;5076649;28;20437;-77
2023/01/13 15:21:42;;;;;;;13.52;3.47;;;;;;;;;;5070644;28;20460;-76
2023/01/13 15:24:08;;;;;;;14.82;3.30;;;;;;;;;;5086432;28;20420;-77
2023/01/13 15:26:34;;;;;;;13.75;3.50;;;;;;;;;;5072075;28;20852;-77
2023/01/13 15:29:00;;;;;;;15.70;3.87;;;;;;;;;;5063610;28;20508;-80
2023/01/13 15:31:27;;;;;;;15.70;3.58;;;;;;;;;;5075151;28;20436;-79